sensor_id;sensor_type;location;lat;lon;timestamp;temperature;humidity
33715;DHT22;20043;50.998;4.754;2024-01-11T00:01:49;-2.40;99.90
33715;DHT22;20043;50.998;4.754;2024-01-11T00:04:15;-2.40;99.90
33715;DHT22;20043;50.998;4.754;2024-01-11T00:06:44;-2.50;99.90
33715;DHT22;20043;50.998;4.754;2024-01-11T00:09:10;-2.50;99.90
33715;DHT22;20043;50.998;4.754;2024-01-11T00:11:35;-2.40;99.90
33715;DHT22;20043;50.998;4.754;2024-01-11T00:14:02;-2.40;99.90
33715;DHT22;20043;50.998;4.754;2024-01-11T00:16:27;-2.40;99.90
33715;DHT22;20043;50.998;4.754;2024-01-11T00:18:53;-2.20;99.90
33715;DHT22;20043;50.998;4.754;2024-01-11T00:21:18;-2.30;99.90
33715;DHT22;20043;50.998;4.754;2024-01-11T00:23:44;-2.40;99.90
33715;DHT22;20043;50.998;4.754;2024-01-11T00:26:12;-2.30;99.90
33715;DHT22;20043;50.998;4.754;2024-01-11T00:28:38;-2.10;99.90
33715;DHT22;20043;50.998;4.754;2024-01-11T00:31:04;-2.00;99.90
33715;DHT22;20043;50.998;4.754;2024-01-11T00:33:30;-2.00;99.90
33715;DHT22;20043;50.998;4.754;2024-01-11T00:35:56;-1.80;99.90
33715;DHT22;20043;50.998;4.754;2024-01-11T00:38:21;-1.70;99.90
33715;DHT22;20043;50.998;4.754;2024-01-11T00:40:47;-1.60;99.90
33715;DHT22;20043;50.998;4.754;2024-01-11T00:43:12;-1.60;99.90
33715;DHT22;20043;50.998;4.754;2024-01-11T00:45:38;-1.70;99.90
33715;DHT22;20043;50.998;4.754;2024-01-11T00:48:04;-1.90;99.90
33715;DHT22;20043;50.998;4.754;2024-01-11T00:50:31;-2.00;99.90
33715;DHT22;20043;50.998;4.754;2024-01-11T00:52:57;-2.00;99.90
33715;DHT22;20043;50.998;4.754;2024-01-11T00:55:22;-2.00;99.90
33715;DHT22;20043;50.998;4.754;2024-01-11T00:57:49;-1.90;99.90
33715;DHT22;20043;50.998;4.754;2024-01-11T01:00:16;-1.90;99.90
33715;DHT22;20043;50.998;4.754;2024-01-11T01:02:41;-1.90;99.90
33715;DHT22;20043;50.998;4.754;2024-01-11T01:05:08;-2.00;99.90
33715;DHT22;20043;50.998;4.754;2024-01-11T01:07:33;-2.20;99.90
33715;DHT22;20043;50.998;4.754;2024-01-11T01:09:59;-2.20;99.90
33715;DHT22;20043;50.998;4.754;2024-01-11T01:12:25;-2.10;99.90
33715;DHT22;20043;50.998;4.754;2024-01-11T01:14:51;-2.10;99.90
33715;DHT22;20043;50.998;4.754;2024-01-11T01:17:17;-2.10;99.90
33715;DHT22;20043;50.998;4.754;2024-01-11T01:19:43;-2.10;99.90
33715;DHT22;20043;50.998;4.754;2024-01-11T01:22:09;-2.10;99.90
33715;DHT22;20043;50.998;4.754;2024-01-11T01:24:35;-2.20;99.90
33715;DHT22;20043;50.998;4.754;2024-01-11T01:27:01;-2.10;99.90
33715;DHT22;20043;50.998;4.754;2024-01-11T01:29:27;-2.20;99.90
33715;DHT22;20043;50.998;4.754;2024-01-11T01:31:52;-2.20;99.90
33715;DHT22;20043;50.998;4.754;2024-01-11T01:34:19;-2.30;99.90
33715;DHT22;20043;50.998;4.754;2024-01-11T01:36:44;-2.40;99.90
33715;DHT22;20043;50.998;4.754;2024-01-11T01:39:11;-2.40;99.90
33715;DHT22;20043;50.998;4.754;2024-01-11T01:41:36;-2.50;99.90
33715;DHT22;20043;50.998;4.754;2024-01-11T01:44:02;-2.50;99.90
33715;DHT22;20043;50.998;4.754;2024-01-11T01:46:28;-2.40;99.90
33715;DHT22;20043;50.998;4.754;2024-01-11T01:48:56;-2.40;99.90
33715;DHT22;20043;50.998;4.754;2024-01-11T01:51:23;-2.50;99.90
33715;DHT22;20043;50.998;4.754;2024-01-11T01:53:53;-2.50;99.90
33715;DHT22;20043;50.998;4.754;2024-01-11T01:56:20;-2.50;99.90
33715;DHT22;20043;50.998;4.754;2024-01-11T01:58:46;-2.60;99.90
33715;DHT22;20043;50.998;4.754;2024-01-11T02:01:14;-2.70;99.90
33715;DHT22;20043;50.998;4.754;2024-01-11T02:03:41;-2.70;99.90
33715;DHT22;20043;50.998;4.754;2024-01-11T02:06:07;-2.60;99.90
33715;DHT22;20043;50.998;4.754;2024-01-11T02:08:33;-2.50;99.90
33715;DHT22;20043;50.998;4.754;2024-01-11T02:11:00;-2.60;99.90
33715;DHT22;20043;50.998;4.754;2024-01-11T02:13:26;-2.60;99.90
33715;DHT22;20043;50.998;4.754;2024-01-11T02:15:51;-2.60;99.90
33715;DHT22;20043;50.998;4.754;2024-01-11T02:18:17;-2.60;99.90
33715;DHT22;20043;50.998;4.754;2024-01-11T02:20:43;-2.60;99.90
33715;DHT22;20043;50.998;4.754;2024-01-11T02:23:14;-2.70;99.90
33715;DHT22;20043;50.998;4.754;2024-01-11T02:25:41;-2.70;99.90
33715;DHT22;20043;50.998;4.754;2024-01-11T02:28:06;-2.60;99.90
33715;DHT22;20043;50.998;4.754;2024-01-11T02:30:33;-2.60;99.90
33715;DHT22;20043;50.998;4.754;2024-01-11T02:32:59;-2.60;99.90
33715;DHT22;20043;50.998;4.754;2024-01-11T02:35:27;-2.60;99.90
33715;DHT22;20043;50.998;4.754;2024-01-11T02:38:00;-2.70;99.90
33715;DHT22;20043;50.998;4.754;2024-01-11T02:40:26;-2.80;99.90
33715;DHT22;20043;50.998;4.754;2024-01-11T02:42:53;-2.80;99.90
33715;DHT22;20043;50.998;4.754;2024-01-11T02:45:18;-2.80;99.90
33715;DHT22;20043;50.998;4.754;2024-01-11T02:47:44;-2.70;99.90
33715;DHT22;20043;50.998;4.754;2024-01-11T02:50:10;-2.80;99.90
33715;DHT22;20043;50.998;4.754;2024-01-11T02:52:37;-2.90;99.90
33715;DHT22;20043;50.998;4.754;2024-01-11T02:55:03;-2.70;99.90
33715;DHT22;20043;50.998;4.754;2024-01-11T02:57:29;-2.60;99.90
33715;DHT22;20043;50.998;4.754;2024-01-11T02:59:54;-2.70;99.90
33715;DHT22;20043;50.998;4.754;2024-01-11T03:02:20;-2.70;99.90
33715;DHT22;20043;50.998;4.754;2024-01-11T03:04:46;-2.80;99.90
33715;DHT22;20043;50.998;4.754;2024-01-11T03:07:11;-2.90;99.90
33715;DHT22;20043;50.998;4.754;2024-01-11T03:09:37;-3.00;99.90
33715;DHT22;20043;50.998;4.754;2024-01-11T03:12:03;-3.00;99.90
33715;DHT22;20043;50.998;4.754;2024-01-11T03:14:28;-2.90;99.90
33715;DHT22;20043;50.998;4.754;2024-01-11T03:16:54;-2.90;99.90
33715;DHT22;20043;50.998;4.754;2024-01-11T03:19:20;-2.90;99.90
33715;DHT22;20043;50.998;4.754;2024-01-11T03:21:46;-3.00;99.90
33715;DHT22;20043;50.998;4.754;2024-01-11T03:24:12;-2.90;99.90
33715;DHT22;20043;50.998;4.754;2024-01-11T03:26:38;-2.80;99.90
33715;DHT22;20043;50.998;4.754;2024-01-11T03:29:04;-2.90;99.90
33715;DHT22;20043;50.998;4.754;2024-01-11T03:31:29;-3.00;99.90
33715;DHT22;20043;50.998;4.754;2024-01-11T03:33:55;-3.00;99.90
33715;DHT22;20043;50.998;4.754;2024-01-11T03:36:23;-3.00;99.90
33715;DHT22;20043;50.998;4.754;2024-01-11T03:38:50;-3.10;99.90
33715;DHT22;20043;50.998;4.754;2024-01-11T03:41:15;-3.60;99.90
33715;DHT22;20043;50.998;4.754;2024-01-11T03:43:41;-3.80;99.90
33715;DHT22;20043;50.998;4.754;2024-01-11T03:46:07;-3.80;99.90
33715;DHT22;20043;50.998;4.754;2024-01-11T03:48:32;-3.60;99.90
33715;DHT22;20043;50.998;4.754;2024-01-11T03:50:58;-3.50;99.90
33715;DHT22;20043;50.998;4.754;2024-01-11T03:53:24;-3.40;99.90
33715;DHT22;20043;50.998;4.754;2024-01-11T03:55:49;-3.30;99.90
33715;DHT22;20043;50.998;4.754;2024-01-11T03:58:15;-3.20;99.90
33715;DHT22;20043;50.998;4.754;2024-01-11T04:00:41;-2.90;99.90
33715;DHT22;20043;50.998;4.754;2024-01-11T04:03:06;-3.10;99.90
33715;DHT22;20043;50.998;4.754;2024-01-11T04:05:32;-3.10;99.90
33715;DHT22;20043;50.998;4.754;2024-01-11T04:07:58;-3.00;99.90
33715;DHT22;20043;50.998;4.754;2024-01-11T04:10:23;-2.70;99.90
33715;DHT22;20043;50.998;4.754;2024-01-11T04:12:49;-2.90;99.90
33715;DHT22;20043;50.998;4.754;2024-01-11T04:15:15;-3.00;99.90
33715;DHT22;20043;50.998;4.754;2024-01-11T04:17:41;-3.00;99.90
33715;DHT22;20043;50.998;4.754;2024-01-11T04:20:07;-3.10;99.90
33715;DHT22;20043;50.998;4.754;2024-01-11T04:22:34;-3.10;99.90
33715;DHT22;20043;50.998;4.754;2024-01-11T04:25:00;-3.10;99.90
33715;DHT22;20043;50.998;4.754;2024-01-11T04:27:26;-2.90;99.90
33715;DHT22;20043;50.998;4.754;2024-01-11T04:29:51;-3.00;99.90
33715;DHT22;20043;50.998;4.754;2024-01-11T04:32:17;-3.00;99.90
33715;DHT22;20043;50.998;4.754;2024-01-11T04:34:43;-3.00;99.90
33715;DHT22;20043;50.998;4.754;2024-01-11T04:37:08;-2.80;99.90
33715;DHT22;20043;50.998;4.754;2024-01-11T04:39:34;-3.10;99.90
33715;DHT22;20043;50.998;4.754;2024-01-11T04:41:59;-3.10;99.90
33715;DHT22;20043;50.998;4.754;2024-01-11T04:44:26;-3.20;99.90
33715;DHT22;20043;50.998;4.754;2024-01-11T04:46:52;-3.20;99.90
33715;DHT22;20043;50.998;4.754;2024-01-11T04:49:17;-3.20;99.90
33715;DHT22;20043;50.998;4.754;2024-01-11T04:51:43;-3.30;99.90
33715;DHT22;20043;50.998;4.754;2024-01-11T04:54:08;-3.30;99.90
33715;DHT22;20043;50.998;4.754;2024-01-11T04:56:34;-3.30;99.90
33715;DHT22;20043;50.998;4.754;2024-01-11T04:59:00;-3.40;99.90
33715;DHT22;20043;50.998;4.754;2024-01-11T05:01:25;-3.40;99.90
33715;DHT22;20043;50.998;4.754;2024-01-11T05:03:51;-3.40;99.90
33715;DHT22;20043;50.998;4.754;2024-01-11T05:06:18;-3.30;99.90
33715;DHT22;20043;50.998;4.754;2024-01-11T05:08:45;-3.50;99.90
33715;DHT22;20043;50.998;4.754;2024-01-11T05:11:18;-3.50;99.90
33715;DHT22;20043;50.998;4.754;2024-01-11T05:13:44;-3.60;99.90
33715;DHT22;20043;50.998;4.754;2024-01-11T05:16:24;-3.80;99.90
33715;DHT22;20043;50.998;4.754;2024-01-11T05:18:53;-3.80;99.90
33715;DHT22;20043;50.998;4.754;2024-01-11T05:21:20;-3.70;99.90
33715;DHT22;20043;50.998;4.754;2024-01-11T05:23:46;-3.80;99.90
33715;DHT22;20043;50.998;4.754;2024-01-11T05:26:13;-3.70;99.90
33715;DHT22;20043;50.998;4.754;2024-01-11T05:28:39;-3.80;99.90
33715;DHT22;20043;50.998;4.754;2024-01-11T05:31:10;-3.80;99.90
33715;DHT22;20043;50.998;4.754;2024-01-11T05:33:36;-3.70;99.90
33715;DHT22;20043;50.998;4.754;2024-01-11T05:36:02;-3.50;99.90
33715;DHT22;20043;50.998;4.754;2024-01-11T05:38:27;-3.30;99.90
33715;DHT22;20043;50.998;4.754;2024-01-11T05:40:53;-3.30;99.90
33715;DHT22;20043;50.998;4.754;2024-01-11T05:43:19;-3.30;99.90
33715;DHT22;20043;50.998;4.754;2024-01-11T05:45:44;-3.50;99.90
33715;DHT22;20043;50.998;4.754;2024-01-11T05:48:10;-3.60;99.90
33715;DHT22;20043;50.998;4.754;2024-01-11T05:50:36;-3.50;99.90
33715;DHT22;20043;50.998;4.754;2024-01-11T05:53:02;-3.40;99.90
33715;DHT22;20043;50.998;4.754;2024-01-11T05:55:28;-3.40;99.90
33715;DHT22;20043;50.998;4.754;2024-01-11T05:57:53;-3.40;99.90
33715;DHT22;20043;50.998;4.754;2024-01-11T06:00:20;-3.50;99.90
33715;DHT22;20043;50.998;4.754;2024-01-11T06:02:45;-3.30;99.90
33715;DHT22;20043;50.998;4.754;2024-01-11T06:05:11;-3.10;99.90
33715;DHT22;20043;50.998;4.754;2024-01-11T06:07:40;-2.90;99.90
33715;DHT22;20043;50.998;4.754;2024-01-11T06:10:07;-2.80;99.90
33715;DHT22;20043;50.998;4.754;2024-01-11T06:12:34;-2.80;99.90
33715;DHT22;20043;50.998;4.754;2024-01-11T06:15:01;-3.00;99.90
33715;DHT22;20043;50.998;4.754;2024-01-11T06:17:27;-3.00;99.90
33715;DHT22;20043;50.998;4.754;2024-01-11T06:19:53;-2.90;99.90
33715;DHT22;20043;50.998;4.754;2024-01-11T06:22:19;-2.90;99.90
33715;DHT22;20043;50.998;4.754;2024-01-11T06:24:44;-3.20;99.90
33715;DHT22;20043;50.998;4.754;2024-01-11T06:27:10;-3.10;99.90
33715;DHT22;20043;50.998;4.754;2024-01-11T06:29:36;-3.00;99.90
33715;DHT22;20043;50.998;4.754;2024-01-11T06:32:02;-2.90;99.90
33715;DHT22;20043;50.998;4.754;2024-01-11T06:34:28;-3.00;99.90
33715;DHT22;20043;50.998;4.754;2024-01-11T06:36:54;-3.10;99.90
33715;DHT22;20043;50.998;4.754;2024-01-11T06:39:20;-3.20;99.90
33715;DHT22;20043;50.998;4.754;2024-01-11T06:41:46;-3.30;99.90
33715;DHT22;20043;50.998;4.754;2024-01-11T06:44:12;-3.20;99.90
33715;DHT22;20043;50.998;4.754;2024-01-11T06:46:37;-3.10;99.90
33715;DHT22;20043;50.998;4.754;2024-01-11T06:49:09;-3.10;99.90
33715;DHT22;20043;50.998;4.754;2024-01-11T06:51:35;-3.10;99.90
33715;DHT22;20043;50.998;4.754;2024-01-11T06:54:01;-3.30;99.90
33715;DHT22;20043;50.998;4.754;2024-01-11T06:56:27;-3.10;99.90
33715;DHT22;20043;50.998;4.754;2024-01-11T06:58:52;-3.10;99.90
33715;DHT22;20043;50.998;4.754;2024-01-11T07:01:20;-3.20;99.90
33715;DHT22;20043;50.998;4.754;2024-01-11T07:03:45;-3.20;99.90
33715;DHT22;20043;50.998;4.754;2024-01-11T07:06:11;-3.40;99.90
33715;DHT22;20043;50.998;4.754;2024-01-11T07:08:37;-3.40;99.90
33715;DHT22;20043;50.998;4.754;2024-01-11T07:11:03;-3.20;99.90
33715;DHT22;20043;50.998;4.754;2024-01-11T07:13:29;-3.20;99.90
33715;DHT22;20043;50.998;4.754;2024-01-11T07:15:55;-3.30;99.90
33715;DHT22;20043;50.998;4.754;2024-01-11T07:18:22;-3.40;99.90
33715;DHT22;20043;50.998;4.754;2024-01-11T07:20:48;-3.40;99.90
33715;DHT22;20043;50.998;4.754;2024-01-11T07:23:14;-3.40;99.90
33715;DHT22;20043;50.998;4.754;2024-01-11T07:25:40;-3.40;99.90
33715;DHT22;20043;50.998;4.754;2024-01-11T07:28:07;-3.50;99.90
33715;DHT22;20043;50.998;4.754;2024-01-11T07:30:32;-3.70;99.90
33715;DHT22;20043;50.998;4.754;2024-01-11T07:32:58;-3.70;99.90
33715;DHT22;20043;50.998;4.754;2024-01-11T07:35:24;-3.50;99.90
33715;DHT22;20043;50.998;4.754;2024-01-11T07:37:50;-3.40;99.90
33715;DHT22;20043;50.998;4.754;2024-01-11T07:40:16;-3.30;99.90
33715;DHT22;20043;50.998;4.754;2024-01-11T07:42:42;-3.30;99.90
33715;DHT22;20043;50.998;4.754;2024-01-11T07:45:09;-3.20;99.90
33715;DHT22;20043;50.998;4.754;2024-01-11T07:47:39;-3.30;99.90
33715;DHT22;20043;50.998;4.754;2024-01-11T07:50:09;-3.50;99.90
33715;DHT22;20043;50.998;4.754;2024-01-11T07:52:35;-3.50;99.90
33715;DHT22;20043;50.998;4.754;2024-01-11T07:55:02;-3.60;99.90
33715;DHT22;20043;50.998;4.754;2024-01-11T07:57:35;-3.50;99.90
33715;DHT22;20043;50.998;4.754;2024-01-11T08:00:02;-3.60;99.90
33715;DHT22;20043;50.998;4.754;2024-01-11T08:02:29;-3.50;99.90
33715;DHT22;20043;50.998;4.754;2024-01-11T08:04:54;-3.50;99.90
33715;DHT22;20043;50.998;4.754;2024-01-11T08:07:20;-3.50;99.90
33715;DHT22;20043;50.998;4.754;2024-01-11T08:09:46;-3.30;99.90
33715;DHT22;20043;50.998;4.754;2024-01-11T08:12:12;-3.40;99.90
33715;DHT22;20043;50.998;4.754;2024-01-11T08:14:39;-3.20;99.90
33715;DHT22;20043;50.998;4.754;2024-01-11T08:17:04;-3.20;99.90
33715;DHT22;20043;50.998;4.754;2024-01-11T08:19:31;-3.20;99.90
33715;DHT22;20043;50.998;4.754;2024-01-11T08:21:58;-3.40;99.90
33715;DHT22;20043;50.998;4.754;2024-01-11T08:24:23;-3.50;99.90
33715;DHT22;20043;50.998;4.754;2024-01-11T08:26:50;-3.40;99.90
33715;DHT22;20043;50.998;4.754;2024-01-11T08:29:16;-3.20;99.90
33715;DHT22;20043;50.998;4.754;2024-01-11T08:31:44;-3.10;99.90
33715;DHT22;20043;50.998;4.754;2024-01-11T08:34:10;-2.90;99.90
33715;DHT22;20043;50.998;4.754;2024-01-11T08:36:36;-3.00;99.90
33715;DHT22;20043;50.998;4.754;2024-01-11T08:39:06;-3.00;99.90
33715;DHT22;20043;50.998;4.754;2024-01-11T08:41:33;-3.30;99.90
33715;DHT22;20043;50.998;4.754;2024-01-11T08:43:59;-3.20;99.90
33715;DHT22;20043;50.998;4.754;2024-01-11T08:46:28;-2.90;99.90
33715;DHT22;20043;50.998;4.754;2024-01-11T08:48:56;-2.80;99.90
33715;DHT22;20043;50.998;4.754;2024-01-11T08:51:22;-2.70;99.90
33715;DHT22;20043;50.998;4.754;2024-01-11T08:53:48;-2.60;99.90
33715;DHT22;20043;50.998;4.754;2024-01-11T08:56:13;-2.60;99.90
33715;DHT22;20043;50.998;4.754;2024-01-11T08:58:41;-2.40;99.90
33715;DHT22;20043;50.998;4.754;2024-01-11T09:01:07;-2.30;99.90
33715;DHT22;20043;50.998;4.754;2024-01-11T09:03:34;-2.20;99.90
33715;DHT22;20043;50.998;4.754;2024-01-11T09:06:01;-2.10;99.90
33715;DHT22;20043;50.998;4.754;2024-01-11T09:08:26;-2.00;99.90
33715;DHT22;20043;50.998;4.754;2024-01-11T09:10:52;-2.10;99.90
33715;DHT22;20043;50.998;4.754;2024-01-11T09:13:18;-2.20;99.90
33715;DHT22;20043;50.998;4.754;2024-01-11T09:15:51;-2.30;99.90
33715;DHT22;20043;50.998;4.754;2024-01-11T09:18:17;-2.80;99.90
33715;DHT22;20043;50.998;4.754;2024-01-11T09:20:43;-2.60;99.90
33715;DHT22;20043;50.998;4.754;2024-01-11T09:23:09;-2.40;99.90
33715;DHT22;20043;50.998;4.754;2024-01-11T09:25:35;-2.10;99.90
33715;DHT22;20043;50.998;4.754;2024-01-11T09:28:01;-1.90;99.90
33715;DHT22;20043;50.998;4.754;2024-01-11T09:30:26;-1.70;99.90
33715;DHT22;20043;50.998;4.754;2024-01-11T09:32:52;-1.60;99.90
33715;DHT22;20043;50.998;4.754;2024-01-11T09:35:18;-1.50;99.90
33715;DHT22;20043;50.998;4.754;2024-01-11T09:37:44;-1.50;99.90
33715;DHT22;20043;50.998;4.754;2024-01-11T09:40:12;-1.50;99.90
33715;DHT22;20043;50.998;4.754;2024-01-11T09:42:38;-1.60;99.90
33715;DHT22;20043;50.998;4.754;2024-01-11T09:45:15;-1.70;99.90
33715;DHT22;20043;50.998;4.754;2024-01-11T09:47:44;-1.70;99.90
33715;DHT22;20043;50.998;4.754;2024-01-11T09:50:11;-1.40;99.90
33715;DHT22;20043;50.998;4.754;2024-01-11T09:52:49;-1.30;99.90
33715;DHT22;20043;50.998;4.754;2024-01-11T09:55:15;-1.30;99.90
33715;DHT22;20043;50.998;4.754;2024-01-11T09:57:45;-1.30;99.90
33715;DHT22;20043;50.998;4.754;2024-01-11T10:00:17;-1.20;99.90
33715;DHT22;20043;50.998;4.754;2024-01-11T10:02:45;-1.30;99.90
33715;DHT22;20043;50.998;4.754;2024-01-11T10:05:11;-1.30;99.90
33715;DHT22;20043;50.998;4.754;2024-01-11T10:07:39;-1.30;99.90
33715;DHT22;20043;50.998;4.754;2024-01-11T10:10:06;-1.50;99.90
33715;DHT22;20043;50.998;4.754;2024-01-11T10:12:34;-1.60;99.90
33715;DHT22;20043;50.998;4.754;2024-01-11T10:15:07;-1.50;99.90
33715;DHT22;20043;50.998;4.754;2024-01-11T10:17:43;-1.20;99.90
33715;DHT22;20043;50.998;4.754;2024-01-11T10:20:12;-1.00;99.90
33715;DHT22;20043;50.998;4.754;2024-01-11T10:22:40;-0.90;99.90
33715;DHT22;20043;50.998;4.754;2024-01-11T10:25:09;-0.80;99.90
33715;DHT22;20043;50.998;4.754;2024-01-11T10:27:37;-0.50;99.90
33715;DHT22;20043;50.998;4.754;2024-01-11T10:30:03;-0.60;99.90
33715;DHT22;20043;50.998;4.754;2024-01-11T10:32:29;-0.70;99.90
33715;DHT22;20043;50.998;4.754;2024-01-11T10:34:55;-0.70;99.90
33715;DHT22;20043;50.998;4.754;2024-01-11T10:37:22;-0.50;99.90
33715;DHT22;20043;50.998;4.754;2024-01-11T10:39:49;-0.40;99.90
33715;DHT22;20043;50.998;4.754;2024-01-11T10:42:18;-0.40;99.90
33715;DHT22;20043;50.998;4.754;2024-01-11T10:44:52;-0.50;99.90
33715;DHT22;20043;50.998;4.754;2024-01-11T10:47:21;-0.60;99.90
33715;DHT22;20043;50.998;4.754;2024-01-11T10:49:50;-0.60;99.90
33715;DHT22;20043;50.998;4.754;2024-01-11T10:52:20;-0.40;99.90
33715;DHT22;20043;50.998;4.754;2024-01-11T10:54:49;-0.20;99.90
33715;DHT22;20043;50.998;4.754;2024-01-11T10:57:15;-0.10;99.90
33715;DHT22;20043;50.998;4.754;2024-01-11T10:59:41;-0.30;99.90
33715;DHT22;20043;50.998;4.754;2024-01-11T11:02:08;-0.20;99.90
33715;DHT22;20043;50.998;4.754;2024-01-11T11:04:38;-0.40;99.90
33715;DHT22;20043;50.998;4.754;2024-01-11T11:07:05;-0.30;99.90
33715;DHT22;20043;50.998;4.754;2024-01-11T11:09:34;-0.30;99.90
33715;DHT22;20043;50.998;4.754;2024-01-11T11:12:01;-0.30;99.90
33715;DHT22;20043;50.998;4.754;2024-01-11T11:14:30;-0.20;99.90
33715;DHT22;20043;50.998;4.754;2024-01-11T11:16:58;-0.10;99.90
33715;DHT22;20043;50.998;4.754;2024-01-11T11:19:24;0.00;99.90
33715;DHT22;20043;50.998;4.754;2024-01-11T11:21:50;0.10;99.90
33715;DHT22;20043;50.998;4.754;2024-01-11T11:24:16;0.10;99.90
33715;DHT22;20043;50.998;4.754;2024-01-11T11:26:42;-0.10;99.90
33715;DHT22;20043;50.998;4.754;2024-01-11T11:29:08;0.10;99.90
33715;DHT22;20043;50.998;4.754;2024-01-11T11:31:42;0.20;99.90
33715;DHT22;20043;50.998;4.754;2024-01-11T11:34:14;0.20;99.90
33715;DHT22;20043;50.998;4.754;2024-01-11T11:36:40;0.10;99.90
33715;DHT22;20043;50.998;4.754;2024-01-11T11:39:13;0.30;99.90
33715;DHT22;20043;50.998;4.754;2024-01-11T11:41:39;0.50;99.90
33715;DHT22;20043;50.998;4.754;2024-01-11T11:44:07;0.70;99.90
33715;DHT22;20043;50.998;4.754;2024-01-11T11:46:37;0.60;99.90
33715;DHT22;20043;50.998;4.754;2024-01-11T11:49:03;0.70;99.90
33715;DHT22;20043;50.998;4.754;2024-01-11T11:51:29;0.80;99.90
33715;DHT22;20043;50.998;4.754;2024-01-11T11:53:55;0.60;99.90
33715;DHT22;20043;50.998;4.754;2024-01-11T11:56:21;0.80;99.90
33715;DHT22;20043;50.998;4.754;2024-01-11T11:58:48;0.70;99.90
33715;DHT22;20043;50.998;4.754;2024-01-11T12:01:15;0.80;99.90
33715;DHT22;20043;50.998;4.754;2024-01-11T12:03:43;0.70;99.90
33715;DHT22;20043;50.998;4.754;2024-01-11T12:06:19;0.80;99.90
33715;DHT22;20043;50.998;4.754;2024-01-11T12:08:47;1.00;99.90
33715;DHT22;20043;50.998;4.754;2024-01-11T12:11:18;1.10;99.90
33715;DHT22;20043;50.998;4.754;2024-01-11T12:13:44;1.20;99.90
33715;DHT22;20043;50.998;4.754;2024-01-11T12:16:10;1.20;99.90
33715;DHT22;20043;50.998;4.754;2024-01-11T12:18:36;1.10;99.90
33715;DHT22;20043;50.998;4.754;2024-01-11T12:21:01;1.20;99.90
33715;DHT22;20043;50.998;4.754;2024-01-11T12:23:28;1.30;99.90
33715;DHT22;20043;50.998;4.754;2024-01-11T12:25:58;1.50;99.90
33715;DHT22;20043;50.998;4.754;2024-01-11T12:28:26;1.50;99.90
33715;DHT22;20043;50.998;4.754;2024-01-11T12:30:58;1.70;99.90
33715;DHT22;20043;50.998;4.754;2024-01-11T12:33:25;1.50;99.90
33715;DHT22;20043;50.998;4.754;2024-01-11T12:35:51;1.40;99.90
33715;DHT22;20043;50.998;4.754;2024-01-11T12:38:17;1.60;99.90
33715;DHT22;20043;50.998;4.754;2024-01-11T12:40:43;1.50;99.90
33715;DHT22;20043;50.998;4.754;2024-01-11T12:43:11;1.40;99.90
33715;DHT22;20043;50.998;4.754;2024-01-11T12:45:37;1.40;99.90
33715;DHT22;20043;50.998;4.754;2024-01-11T12:48:03;1.50;99.90
33715;DHT22;20043;50.998;4.754;2024-01-11T12:50:32;1.50;99.90
33715;DHT22;20043;50.998;4.754;2024-01-11T12:53:05;1.60;99.90
33715;DHT22;20043;50.998;4.754;2024-01-11T12:55:31;1.70;99.90
33715;DHT22;20043;50.998;4.754;2024-01-11T12:58:09;1.70;99.90
33715;DHT22;20043;50.998;4.754;2024-01-11T13:00:37;1.80;99.90
33715;DHT22;20043;50.998;4.754;2024-01-11T13:03:04;2.00;99.90
33715;DHT22;20043;50.998;4.754;2024-01-11T13:05:30;2.00;99.90
33715;DHT22;20043;50.998;4.754;2024-01-11T13:08:07;2.00;99.90
33715;DHT22;20043;50.998;4.754;2024-01-11T13:10:34;2.10;99.90
33715;DHT22;20043;50.998;4.754;2024-01-11T13:13:01;2.10;99.90
33715;DHT22;20043;50.998;4.754;2024-01-11T13:15:27;2.10;99.90
33715;DHT22;20043;50.998;4.754;2024-01-11T13:17:55;2.10;99.90
33715;DHT22;20043;50.998;4.754;2024-01-11T13:20:21;2.10;99.90
33715;DHT22;20043;50.998;4.754;2024-01-11T13:22:47;2.10;99.90
33715;DHT22;20043;50.998;4.754;2024-01-11T13:25:12;2.10;99.90
33715;DHT22;20043;50.998;4.754;2024-01-11T13:27:46;2.10;99.90
33715;DHT22;20043;50.998;4.754;2024-01-11T13:30:19;2.10;99.90
33715;DHT22;20043;50.998;4.754;2024-01-11T13:32:44;2.20;99.90
33715;DHT22;20043;50.998;4.754;2024-01-11T13:35:10;2.20;99.90
33715;DHT22;20043;50.998;4.754;2024-01-11T13:37:35;2.10;99.90
33715;DHT22;20043;50.998;4.754;2024-01-11T13:40:01;2.20;99.90
33715;DHT22;20043;50.998;4.754;2024-01-11T13:42:28;2.30;99.90
33715;DHT22;20043;50.998;4.754;2024-01-11T13:44:54;2.40;99.90
33715;DHT22;20043;50.998;4.754;2024-01-11T13:47:20;2.40;99.90
33715;DHT22;20043;50.998;4.754;2024-01-11T13:49:45;2.40;99.90
33715;DHT22;20043;50.998;4.754;2024-01-11T13:52:11;2.40;99.90
33715;DHT22;20043;50.998;4.754;2024-01-11T13:54:37;2.30;99.90
33715;DHT22;20043;50.998;4.754;2024-01-11T13:57:03;2.20;99.90
33715;DHT22;20043;50.998;4.754;2024-01-11T13:59:28;2.20;99.90
33715;DHT22;20043;50.998;4.754;2024-01-11T14:01:54;2.20;99.90
33715;DHT22;20043;50.998;4.754;2024-01-11T14:04:20;2.20;99.90
33715;DHT22;20043;50.998;4.754;2024-01-11T14:06:48;2.20;99.90
33715;DHT22;20043;50.998;4.754;2024-01-11T14:09:16;2.20;99.90
33715;DHT22;20043;50.998;4.754;2024-01-11T14:11:42;2.20;99.90
33715;DHT22;20043;50.998;4.754;2024-01-11T14:14:08;2.30;99.90
33715;DHT22;20043;50.998;4.754;2024-01-11T14:16:33;2.40;99.90
33715;DHT22;20043;50.998;4.754;2024-01-11T14:18:59;2.30;99.90
33715;DHT22;20043;50.998;4.754;2024-01-11T14:21:25;2.30;99.90
33715;DHT22;20043;50.998;4.754;2024-01-11T14:23:50;2.20;99.90
33715;DHT22;20043;50.998;4.754;2024-01-11T14:26:17;2.10;99.90
33715;DHT22;20043;50.998;4.754;2024-01-11T14:28:42;2.20;99.90
33715;DHT22;20043;50.998;4.754;2024-01-11T14:31:08;2.10;99.90
33715;DHT22;20043;50.998;4.754;2024-01-11T14:33:40;2.10;99.90
33715;DHT22;20043;50.998;4.754;2024-01-11T14:36:06;2.00;99.90
33715;DHT22;20043;50.998;4.754;2024-01-11T14:38:31;1.90;99.90
33715;DHT22;20043;50.998;4.754;2024-01-11T14:40:57;1.80;99.90
33715;DHT22;20043;50.998;4.754;2024-01-11T14:43:23;1.80;99.90
33715;DHT22;20043;50.998;4.754;2024-01-11T14:45:48;1.90;99.90
33715;DHT22;20043;50.998;4.754;2024-01-11T14:48:14;2.10;99.90
33715;DHT22;20043;50.998;4.754;2024-01-11T14:50:39;2.10;99.90
33715;DHT22;20043;50.998;4.754;2024-01-11T14:53:05;2.10;99.90
33715;DHT22;20043;50.998;4.754;2024-01-11T14:55:30;1.90;99.90
33715;DHT22;20043;50.998;4.754;2024-01-11T14:57:56;1.90;99.90
33715;DHT22;20043;50.998;4.754;2024-01-11T15:00:22;1.90;99.90
33715;DHT22;20043;50.998;4.754;2024-01-11T15:02:47;2.00;99.90
33715;DHT22;20043;50.998;4.754;2024-01-11T15:05:14;2.10;99.90
33715;DHT22;20043;50.998;4.754;2024-01-11T15:07:40;2.00;99.90
33715;DHT22;20043;50.998;4.754;2024-01-11T15:10:06;2.10;99.90
33715;DHT22;20043;50.998;4.754;2024-01-11T15:12:31;2.00;99.90
33715;DHT22;20043;50.998;4.754;2024-01-11T15:14:57;2.00;99.90
33715;DHT22;20043;50.998;4.754;2024-01-11T15:17:23;1.70;99.90
33715;DHT22;20043;50.998;4.754;2024-01-11T15:19:49;1.70;99.90
33715;DHT22;20043;50.998;4.754;2024-01-11T15:22:15;1.70;99.90
33715;DHT22;20043;50.998;4.754;2024-01-11T15:24:41;1.70;99.90
33715;DHT22;20043;50.998;4.754;2024-01-11T15:27:08;1.90;99.90
33715;DHT22;20043;50.998;4.754;2024-01-11T15:29:33;2.10;99.90
33715;DHT22;20043;50.998;4.754;2024-01-11T15:31:59;1.80;99.90